sensor_id;sensor_type;location;lat;lon;timestamp;P1;durP1;ratioP1;P2;durP2;ratioP2
12756;SDS011;31601;48.042;12.240;2023-03-02T00:00:40;26.47;;;17.70;;
12756;SDS011;31601;48.042;12.240;2023-03-02T00:03:08;25.77;;;17.63;;
12756;SDS011;31601;48.042;12.240;2023-03-02T00:05:36;29.27;;;18.40;;
12756;SDS011;31601;48.042;12.240;2023-03-02T00:08:05;29.90;;;18.03;;
12756;SDS011;31601;48.042;12.240;2023-03-02T00:10:33;31.67;;;17.77;;
12756;SDS011;31601;48.042;12.240;2023-03-02T00:13:00;27.53;;;18.67;;
12756;SDS011;31601;48.042;12.240;2023-03-02T00:15:27;29.40;;;17.73;;
12756;SDS011;31601;48.042;12.240;2023-03-02T00:17:54;31.23;;;19.80;;
12756;SDS011;31601;48.042;12.240;2023-03-02T00:20:21;26.83;;;18.17;;
12756;SDS011;31601;48.042;12.240;2023-03-02T00:22:47;26.80;;;18.83;;
12756;SDS011;31601;48.042;12.240;2023-03-02T00:25:14;29.43;;;18.10;;
12756;SDS011;31601;48.042;12.240;2023-03-02T00:27:42;29.77;;;18.43;;
12756;SDS011;31601;48.042;12.240;2023-03-02T00:30:09;28.83;;;19.43;;
12756;SDS011;31601;48.042;12.240;2023-03-02T00:32:40;29.07;;;18.63;;
12756;SDS011;31601;48.042;12.240;2023-03-02T00:35:08;28.40;;;19.57;;
12756;SDS011;31601;48.042;12.240;2023-03-02T00:37:35;29.73;;;19.40;;
12756;SDS011;31601;48.042;12.240;2023-03-02T00:40:02;30.97;;;20.07;;
12756;SDS011;31601;48.042;12.240;2023-03-02T00:42:30;32.33;;;21.07;;
12756;SDS011;31601;48.042;12.240;2023-03-02T00:44:57;32.33;;;20.37;;
12756;SDS011;31601;48.042;12.240;2023-03-02T00:47:25;28.83;;;18.60;;
12756;SDS011;31601;48.042;12.240;2023-03-02T00:49:52;33.03;;;20.67;;
12756;SDS011;31601;48.042;12.240;2023-03-02T00:52:20;31.87;;;19.17;;
12756;SDS011;31601;48.042;12.240;2023-03-02T00:54:46;32.03;;;21.53;;
12756;SDS011;31601;48.042;12.240;2023-03-02T00:57:12;31.10;;;22.10;;
12756;SDS011;31601;48.042;12.240;2023-03-02T00:59:39;121.07;;;62.13;;
12756;SDS011;31601;48.042;12.240;2023-03-02T01:02:05;97.23;;;45.93;;
12756;SDS011;31601;48.042;12.240;2023-03-02T01:04:33;119.03;;;59.40;;
12756;SDS011;31601;48.042;12.240;2023-03-02T01:07:01;135.20;;;67.77;;
12756;SDS011;31601;48.042;12.240;2023-03-02T01:09:31;124.23;;;64.40;;
12756;SDS011;31601;48.042;12.240;2023-03-02T01:11:58;110.80;;;58.63;;
12756;SDS011;31601;48.042;12.240;2023-03-02T01:14:25;93.53;;;50.57;;
12756;SDS011;31601;48.042;12.240;2023-03-02T01:16:51;44.13;;;26.93;;
12756;SDS011;31601;48.042;12.240;2023-03-02T01:19:18;56.83;;;33.50;;
12756;SDS011;31601;48.042;12.240;2023-03-02T01:21:44;52.80;;;30.20;;
12756;SDS011;31601;48.042;12.240;2023-03-02T01:24:11;47.20;;;29.00;;
12756;SDS011;31601;48.042;12.240;2023-03-02T01:26:39;44.73;;;27.03;;
12756;SDS011;31601;48.042;12.240;2023-03-02T01:29:05;38.37;;;23.97;;
12756;SDS011;31601;48.042;12.240;2023-03-02T01:31:32;40.63;;;24.67;;
12756;SDS011;31601;48.042;12.240;2023-03-02T01:33:58;41.50;;;25.63;;
12756;SDS011;31601;48.042;12.240;2023-03-02T01:36:25;38.50;;;23.23;;
12756;SDS011;31601;48.042;12.240;2023-03-02T01:38:51;37.93;;;23.67;;
12756;SDS011;31601;48.042;12.240;2023-03-02T01:41:18;48.67;;;25.10;;
12756;SDS011;31601;48.042;12.240;2023-03-02T01:43:46;44.27;;;26.10;;
12756;SDS011;31601;48.042;12.240;2023-03-02T01:46:13;42.53;;;24.23;;
12756;SDS011;31601;48.042;12.240;2023-03-02T01:48:43;36.00;;;24.00;;
12756;SDS011;31601;48.042;12.240;2023-03-02T01:51:12;37.03;;;24.07;;
12756;SDS011;31601;48.042;12.240;2023-03-02T01:53:41;34.73;;;23.00;;
12756;SDS011;31601;48.042;12.240;2023-03-02T01:56:10;38.00;;;23.00;;
12756;SDS011;31601;48.042;12.240;2023-03-02T01:58:40;34.70;;;21.50;;
12756;SDS011;31601;48.042;12.240;2023-03-02T02:01:08;36.63;;;22.50;;
12756;SDS011;31601;48.042;12.240;2023-03-02T02:03:39;35.40;;;22.57;;
12756;SDS011;31601;48.042;12.240;2023-03-02T02:06:09;37.80;;;23.73;;
12756;SDS011;31601;48.042;12.240;2023-03-02T02:08:42;34.47;;;21.70;;
12756;SDS011;31601;48.042;12.240;2023-03-02T02:11:09;36.40;;;22.23;;
12756;SDS011;31601;48.042;12.240;2023-03-02T02:13:36;34.70;;;22.90;;
12756;SDS011;31601;48.042;12.240;2023-03-02T02:16:02;33.63;;;21.70;;
12756;SDS011;31601;48.042;12.240;2023-03-02T02:18:31;34.23;;;21.77;;
12756;SDS011;31601;48.042;12.240;2023-03-02T02:20:57;32.07;;;21.40;;
12756;SDS011;31601;48.042;12.240;2023-03-02T02:23:25;35.80;;;22.00;;
12756;SDS011;31601;48.042;12.240;2023-03-02T02:28:42;36.50;;;22.17;;
12756;SDS011;31601;48.042;12.240;2023-03-02T02:31:15;33.93;;;22.23;;
12756;SDS011;31601;48.042;12.240;2023-03-02T02:33:45;33.83;;;21.37;;
12756;SDS011;31601;48.042;12.240;2023-03-02T02:36:18;34.03;;;20.93;;
12756;SDS011;31601;48.042;12.240;2023-03-02T02:38:49;33.00;;;20.33;;
12756;SDS011;31601;48.042;12.240;2023-03-02T02:41:21;29.43;;;19.87;;
12756;SDS011;31601;48.042;12.240;2023-03-02T02:43:51;30.73;;;20.23;;
12756;SDS011;31601;48.042;12.240;2023-03-02T02:46:19;30.27;;;20.63;;
12756;SDS011;31601;48.042;12.240;2023-03-02T02:48:45;31.07;;;19.93;;
12756;SDS011;31601;48.042;12.240;2023-03-02T02:51:13;29.73;;;20.27;;
12756;SDS011;31601;48.042;12.240;2023-03-02T02:53:45;31.93;;;21.37;;
12756;SDS011;31601;48.042;12.240;2023-03-02T02:56:15;30.10;;;19.17;;
12756;SDS011;31601;48.042;12.240;2023-03-02T02:58:46;30.87;;;19.63;;
12756;SDS011;31601;48.042;12.240;2023-03-02T03:01:15;29.90;;;20.50;;
12756;SDS011;31601;48.042;12.240;2023-03-02T03:03:45;32.33;;;19.97;;
12756;SDS011;31601;48.042;12.240;2023-03-02T03:06:16;29.70;;;19.57;;
12756;SDS011;31601;48.042;12.240;2023-03-02T03:08:50;29.30;;;19.17;;
12756;SDS011;31601;48.042;12.240;2023-03-02T03:11:22;29.43;;;19.20;;
12756;SDS011;31601;48.042;12.240;2023-03-02T03:13:53;30.93;;;19.17;;
12756;SDS011;31601;48.042;12.240;2023-03-02T03:16:23;28.50;;;18.13;;
12756;SDS011;31601;48.042;12.240;2023-03-02T03:18:52;28.80;;;19.43;;
12756;SDS011;31601;48.042;12.240;2023-03-02T03:21:19;30.80;;;19.07;;
12756;SDS011;31601;48.042;12.240;2023-03-02T03:23:46;28.67;;;20.40;;
12756;SDS011;31601;48.042;12.240;2023-03-02T03:26:14;29.70;;;20.17;;
12756;SDS011;31601;48.042;12.240;2023-03-02T03:28:40;32.03;;;20.80;;
12756;SDS011;31601;48.042;12.240;2023-03-02T03:31:08;31.70;;;20.80;;
12756;SDS011;31601;48.042;12.240;2023-03-02T03:33:34;26.63;;;18.30;;
12756;SDS011;31601;48.042;12.240;2023-03-02T03:36:01;32.30;;;20.37;;
12756;SDS011;31601;48.042;12.240;2023-03-02T03:38:28;28.13;;;20.13;;
12756;SDS011;31601;48.042;12.240;2023-03-02T03:40:54;32.37;;;21.07;;
12756;SDS011;31601;48.042;12.240;2023-03-02T03:43:21;32.90;;;20.23;;
12756;SDS011;31601;48.042;12.240;2023-03-02T03:45:47;34.73;;;21.07;;
12756;SDS011;31601;48.042;12.240;2023-03-02T03:48:16;31.77;;;20.60;;
12756;SDS011;31601;48.042;12.240;2023-03-02T03:50:43;34.07;;;21.67;;
12756;SDS011;31601;48.042;12.240;2023-03-02T03:53:09;30.43;;;20.63;;
12756;SDS011;31601;48.042;12.240;2023-03-02T03:55:36;33.80;;;20.60;;
12756;SDS011;31601;48.042;12.240;2023-03-02T03:58:02;32.53;;;21.43;;
12756;SDS011;31601;48.042;12.240;2023-03-02T04:00:29;35.00;;;21.73;;
12756;SDS011;31601;48.042;12.240;2023-03-02T04:02:55;33.27;;;20.87;;
12756;SDS011;31601;48.042;12.240;2023-03-02T04:05:23;33.00;;;20.57;;
12756;SDS011;31601;48.042;12.240;2023-03-02T04:07:49;27.70;;;19.33;;
12756;SDS011;31601;48.042;12.240;2023-03-02T04:10:16;31.37;;;21.47;;
12756;SDS011;31601;48.042;12.240;2023-03-02T04:12:43;29.97;;;19.80;;
12756;SDS011;31601;48.042;12.240;2023-03-02T04:15:12;31.57;;;20.47;;
12756;SDS011;31601;48.042;12.240;2023-03-02T04:17:39;31.73;;;20.57;;
12756;SDS011;31601;48.042;12.240;2023-03-02T04:20:08;29.33;;;20.10;;
12756;SDS011;31601;48.042;12.240;2023-03-02T04:22:39;29.80;;;20.50;;
12756;SDS011;31601;48.042;12.240;2023-03-02T04:25:06;30.67;;;20.17;;
12756;SDS011;31601;48.042;12.240;2023-03-02T04:27:33;30.43;;;20.23;;
12756;SDS011;31601;48.042;12.240;2023-03-02T04:29:59;33.77;;;20.83;;
12756;SDS011;31601;48.042;12.240;2023-03-02T04:32:26;32.83;;;21.17;;
12756;SDS011;31601;48.042;12.240;2023-03-02T04:34:52;31.03;;;20.07;;
12756;SDS011;31601;48.042;12.240;2023-03-02T04:37:18;35.07;;;21.00;;
12756;SDS011;31601;48.042;12.240;2023-03-02T04:39:46;31.50;;;20.47;;
12756;SDS011;31601;48.042;12.240;2023-03-02T04:42:15;28.83;;;19.23;;
12756;SDS011;31601;48.042;12.240;2023-03-02T04:44:41;31.90;;;21.13;;
12756;SDS011;31601;48.042;12.240;2023-03-02T04:47:08;30.43;;;19.47;;
12756;SDS011;31601;48.042;12.240;2023-03-02T04:49:35;33.63;;;22.07;;
12756;SDS011;31601;48.042;12.240;2023-03-02T04:52:02;32.27;;;20.93;;
12756;SDS011;31601;48.042;12.240;2023-03-02T04:54:28;31.33;;;20.30;;
12756;SDS011;31601;48.042;12.240;2023-03-02T04:56:56;32.53;;;21.07;;
12756;SDS011;31601;48.042;12.240;2023-03-02T04:59:24;33.00;;;21.23;;
12756;SDS011;31601;48.042;12.240;2023-03-02T05:01:52;33.00;;;21.03;;
12756;SDS011;31601;48.042;12.240;2023-03-02T05:04:19;31.20;;;20.27;;
12756;SDS011;31601;48.042;12.240;2023-03-02T05:06:46;34.90;;;20.17;;
12756;SDS011;31601;48.042;12.240;2023-03-02T05:09:12;29.97;;;20.30;;
12756;SDS011;31601;48.042;12.240;2023-03-02T05:11:39;31.83;;;19.83;;
12756;SDS011;31601;48.042;12.240;2023-03-02T05:14:08;32.10;;;20.87;;
12756;SDS011;31601;48.042;12.240;2023-03-02T05:16:37;32.37;;;20.57;;
12756;SDS011;31601;48.042;12.240;2023-03-02T05:19:06;31.33;;;20.53;;
12756;SDS011;31601;48.042;12.240;2023-03-02T05:21:33;32.03;;;20.53;;
12756;SDS011;31601;48.042;12.240;2023-03-02T05:24:00;32.73;;;20.30;;
12756;SDS011;31601;48.042;12.240;2023-03-02T05:26:28;31.10;;;20.10;;
12756;SDS011;31601;48.042;12.240;2023-03-02T05:28:55;35.20;;;20.53;;
12756;SDS011;31601;48.042;12.240;2023-03-02T05:31:23;35.47;;;21.83;;
12756;SDS011;31601;48.042;12.240;2023-03-02T05:33:54;35.50;;;22.50;;
12756;SDS011;31601;48.042;12.240;2023-03-02T05:36:20;33.33;;;21.17;;
12756;SDS011;31601;48.042;12.240;2023-03-02T05:38:47;34.97;;;21.57;;
12756;SDS011;31601;48.042;12.240;2023-03-02T05:41:13;31.70;;;20.63;;
12756;SDS011;31601;48.042;12.240;2023-03-02T05:43:40;34.07;;;20.73;;
12756;SDS011;31601;48.042;12.240;2023-03-02T05:46:06;32.00;;;20.90;;
12756;SDS011;31601;48.042;12.240;2023-03-02T05:48:34;32.93;;;21.53;;
12756;SDS011;31601;48.042;12.240;2023-03-02T05:51:00;34.37;;;22.23;;
12756;SDS011;31601;48.042;12.240;2023-03-02T05:53:28;35.70;;;21.83;;
12756;SDS011;31601;48.042;12.240;2023-03-02T05:55:54;38.43;;;20.83;;
12756;SDS011;31601;48.042;12.240;2023-03-02T05:58:21;31.97;;;20.57;;
12756;SDS011;31601;48.042;12.240;2023-03-02T06:00:47;34.47;;;21.73;;
12756;SDS011;31601;48.042;12.240;2023-03-02T06:03:14;38.90;;;22.63;;
12756;SDS011;31601;48.042;12.240;2023-03-02T06:05:42;36.57;;;22.37;;
12756;SDS011;31601;48.042;12.240;2023-03-02T06:08:09;36.57;;;22.50;;
12756;SDS011;31601;48.042;12.240;2023-03-02T06:10:35;39.87;;;24.47;;
12756;SDS011;31601;48.042;12.240;2023-03-02T06:13:02;40.83;;;26.13;;
12756;SDS011;31601;48.042;12.240;2023-03-02T06:15:28;41.90;;;26.07;;
12756;SDS011;31601;48.042;12.240;2023-03-02T06:17:55;38.87;;;22.67;;
12756;SDS011;31601;48.042;12.240;2023-03-02T06:20:21;38.33;;;23.53;;
12756;SDS011;31601;48.042;12.240;2023-03-02T06:22:50;39.57;;;24.00;;
12756;SDS011;31601;48.042;12.240;2023-03-02T06:25:17;38.33;;;24.77;;
12756;SDS011;31601;48.042;12.240;2023-03-02T06:27:45;36.40;;;23.93;;
12756;SDS011;31601;48.042;12.240;2023-03-02T06:30:14;36.67;;;23.27;;
12756;SDS011;31601;48.042;12.240;2023-03-02T06:32:42;37.53;;;23.07;;
12756;SDS011;31601;48.042;12.240;2023-03-02T06:35:10;37.80;;;24.57;;
12756;SDS011;31601;48.042;12.240;2023-03-02T06:37:37;37.50;;;24.03;;
12756;SDS011;31601;48.042;12.240;2023-03-02T06:40:06;36.03;;;23.33;;
12756;SDS011;31601;48.042;12.240;2023-03-02T06:42:35;34.43;;;23.90;;
12756;SDS011;31601;48.042;12.240;2023-03-02T06:45:03;46.63;;;27.50;;
12756;SDS011;31601;48.042;12.240;2023-03-02T06:47:31;70.50;;;38.43;;
12756;SDS011;31601;48.042;12.240;2023-03-02T06:49:57;58.07;;;34.17;;
12756;SDS011;31601;48.042;12.240;2023-03-02T06:52:24;42.77;;;26.43;;
12756;SDS011;31601;48.042;12.240;2023-03-02T06:54:51;47.93;;;29.27;;
12756;SDS011;31601;48.042;12.240;2023-03-02T06:57:19;45.50;;;30.03;;
12756;SDS011;31601;48.042;12.240;2023-03-02T06:59:45;40.87;;;25.63;;
12756;SDS011;31601;48.042;12.240;2023-03-02T07:02:11;39.40;;;24.37;;
12756;SDS011;31601;48.042;12.240;2023-03-02T07:04:38;35.63;;;23.60;;
12756;SDS011;31601;48.042;12.240;2023-03-02T07:07:04;36.07;;;23.03;;
12756;SDS011;31601;48.042;12.240;2023-03-02T07:09:31;39.47;;;25.07;;
12756;SDS011;31601;48.042;12.240;2023-03-02T07:11:58;36.20;;;24.57;;
12756;SDS011;31601;48.042;12.240;2023-03-02T07:14:25;38.77;;;25.60;;
12756;SDS011;31601;48.042;12.240;2023-03-02T07:16:52;33.73;;;24.20;;
12756;SDS011;31601;48.042;12.240;2023-03-02T07:19:21;35.40;;;23.57;;
12756;SDS011;31601;48.042;12.240;2023-03-02T07:21:47;32.63;;;22.83;;
12756;SDS011;31601;48.042;12.240;2023-03-02T07:24:14;32.20;;;22.70;;
12756;SDS011;31601;48.042;12.240;2023-03-02T07:26:40;33.60;;;22.70;;
12756;SDS011;31601;48.042;12.240;2023-03-02T07:29:07;34.83;;;21.23;;
12756;SDS011;31601;48.042;12.240;2023-03-02T07:31:34;33.47;;;22.30;;
12756;SDS011;31601;48.042;12.240;2023-03-02T07:34:01;32.53;;;21.17;;
12756;SDS011;31601;48.042;12.240;2023-03-02T07:36:27;31.87;;;21.93;;
12756;SDS011;31601;48.042;12.240;2023-03-02T07:38:54;30.03;;;21.07;;
12756;SDS011;31601;48.042;12.240;2023-03-02T07:41:20;32.20;;;22.17;;
12756;SDS011;31601;48.042;12.240;2023-03-02T07:43:46;33.63;;;21.20;;
12756;SDS011;31601;48.042;12.240;2023-03-02T07:46:13;28.83;;;19.47;;
12756;SDS011;31601;48.042;12.240;2023-03-02T07:48:41;30.27;;;20.57;;
12756;SDS011;31601;48.042;12.240;2023-03-02T07:51:07;35.63;;;21.27;;
12756;SDS011;31601;48.042;12.240;2023-03-02T07:53:34;29.07;;;20.93;;
12756;SDS011;31601;48.042;12.240;2023-03-02T07:56:04;34.47;;;21.77;;
12756;SDS011;31601;48.042;12.240;2023-03-02T07:58:31;32.83;;;22.07;;
12756;SDS011;31601;48.042;12.240;2023-03-02T08:00:57;30.47;;;19.87;;
12756;SDS011;31601;48.042;12.240;2023-03-02T08:03:24;28.80;;;20.23;;
12756;SDS011;31601;48.042;12.240;2023-03-02T08:05:52;28.43;;;20.03;;
12756;SDS011;31601;48.042;12.240;2023-03-02T08:08:18;31.53;;;19.83;;
12756;SDS011;31601;48.042;12.240;2023-03-02T08:10:45;28.90;;;19.27;;
12756;SDS011;31601;48.042;12.240;2023-03-02T08:13:11;31.17;;;20.60;;
12756;SDS011;31601;48.042;12.240;2023-03-02T08:15:38;26.27;;;19.60;;
12756;SDS011;31601;48.042;12.240;2023-03-02T08:18:04;28.33;;;18.47;;
12756;SDS011;31601;48.042;12.240;2023-03-02T08:20:30;29.23;;;19.30;;
12756;SDS011;31601;48.042;12.240;2023-03-02T08:22:58;28.47;;;20.03;;
12756;SDS011;31601;48.042;12.240;2023-03-02T08:25:26;30.40;;;20.20;;
12756;SDS011;31601;48.042;12.240;2023-03-02T08:27:52;30.33;;;20.17;;
12756;SDS011;31601;48.042;12.240;2023-03-02T08:30:19;35.53;;;20.67;;
12756;SDS011;31601;48.042;12.240;2023-03-02T08:32:45;30.77;;;19.93;;
12756;SDS011;31601;48.042;12.240;2023-03-02T08:35:12;34.57;;;20.63;;
12756;SDS011;31601;48.042;12.240;2023-03-02T08:37:38;26.43;;;18.93;;
12756;SDS011;31601;48.042;12.240;2023-03-02T08:40:07;23.93;;;17.17;;
12756;SDS011;31601;48.042;12.240;2023-03-02T08:42:34;54.03;;;20.20;;
12756;SDS011;31601;48.042;12.240;2023-03-02T08:45:01;38.23;;;20.10;;
12756;SDS011;31601;48.042;12.240;2023-03-02T08:47:27;31.23;;;18.50;;
12756;SDS011;31601;48.042;12.240;2023-03-02T08:49:53;26.07;;;17.50;;
12756;SDS011;31601;48.042;12.240;2023-03-02T08:52:20;37.73;;;19.33;;
12756;SDS011;31601;48.042;12.240;2023-03-02T08:54:46;53.33;;;19.77;;
12756;SDS011;31601;48.042;12.240;2023-03-02T08:57:14;33.70;;;19.60;;
12756;SDS011;31601;48.042;12.240;2023-03-02T08:59:40;41.53;;;20.07;;
12756;SDS011;31601;48.042;12.240;2023-03-02T09:02:09;33.23;;;18.50;;
12756;SDS011;31601;48.042;12.240;2023-03-02T09:04:36;26.57;;;18.27;;
12756;SDS011;31601;48.042;12.240;2023-03-02T09:07:02;108.23;;;24.17;;
12756;SDS011;31601;48.042;12.240;2023-03-02T09:09:29;50.50;;;19.57;;
12756;SDS011;31601;48.042;12.240;2023-03-02T09:11:55;58.63;;;20.67;;
12756;SDS011;31601;48.042;12.240;2023-03-02T09:14:23;25.03;;;17.77;;
12756;SDS011;31601;48.042;12.240;2023-03-02T09:16:49;58.27;;;20.63;;
12756;SDS011;31601;48.042;12.240;2023-03-02T09:19:16;26.37;;;17.40;;
12756;SDS011;31601;48.042;12.240;2023-03-02T09:21:43;38.70;;;17.33;;
12756;SDS011;31601;48.042;12.240;2023-03-02T09:24:09;30.97;;;17.23;;
12756;SDS011;31601;48.042;12.240;2023-03-02T09:26:36;24.57;;;15.30;;
12756;SDS011;31601;48.042;12.240;2023-03-02T09:29:03;31.00;;;16.40;;
12756;SDS011;31601;48.042;12.240;2023-03-02T09:31:32;23.00;;;14.83;;
12756;SDS011;31601;48.042;12.240;2023-03-02T09:33:59;26.40;;;15.67;;
12756;SDS011;31601;48.042;12.240;2023-03-02T09:36:25;27.30;;;14.87;;
12756;SDS011;31601;48.042;12.240;2023-03-02T09:38:52;55.57;;;18.87;;
12756;SDS011;31601;48.042;12.240;2023-03-02T09:41:25;39.50;;;17.20;;
12756;SDS011;31601;48.042;12.240;2023-03-02T09:44:03;21.73;;;13.93;;
12756;SDS011;31601;48.042;12.240;2023-03-02T09:46:45;45.47;;;15.97;;
12756;SDS011;31601;48.042;12.240;2023-03-02T09:49:17;21.23;;;13.73;;
12756;SDS011;31601;48.042;12.240;2023-03-02T09:51:54;60.90;;;19.40;;
12756;SDS011;31601;48.042;12.240;2023-03-02T09:54:35;29.00;;;14.27;;
12756;SDS011;31601;48.042;12.240;2023-03-02T09:57:02;70.73;;;18.00;;
12756;SDS011;31601;48.042;12.240;2023-03-02T09:59:40;35.47;;;13.90;;
12756;SDS011;31601;48.042;12.240;2023-03-02T10:02:17;20.90;;;13.03;;
12756;SDS011;31601;48.042;12.240;2023-03-02T10:04:49;85.13;;;17.60;;
12756;SDS011;31601;48.042;12.240;2023-03-02T10:07:18;24.90;;;13.50;;
12756;SDS011;31601;48.042;12.240;2023-03-02T10:09:50;20.33;;;13.10;;
12756;SDS011;31601;48.042;12.240;2023-03-02T10:12:20;26.67;;;12.67;;
12756;SDS011;31601;48.042;12.240;2023-03-02T10:15:02;24.13;;;12.77;;
12756;SDS011;31601;48.042;12.240;2023-03-02T10:17:42;29.83;;;14.43;;
12756;SDS011;31601;48.042;12.240;2023-03-02T10:20:19;17.60;;;11.80;;
12756;SDS011;31601;48.042;12.240;2023-03-02T10:22:51;49.03;;;20.77;;
12756;SDS011;31601;48.042;12.240;2023-03-02T10:25:24;17.97;;;12.33;;
12756;SDS011;31601;48.042;12.240;2023-03-02T10:28:00;19.10;;;11.93;;
12756;SDS011;31601;48.042;12.240;2023-03-02T10:30:35;34.10;;;13.07;;
12756;SDS011;31601;48.042;12.240;2023-03-02T10:33:08;65.83;;;17.47;;
12756;SDS011;31601;48.042;12.240;2023-03-02T10:35:38;22.97;;;12.20;;
12756;SDS011;31601;48.042;12.240;2023-03-02T10:38:11;25.90;;;11.57;;
12756;SDS011;31601;48.042;12.240;2023-03-02T10:40:40;39.20;;;19.60;;
12756;SDS011;31601;48.042;12.240;2023-03-02T10:43:10;24.23;;;11.83;;
12756;SDS011;31601;48.042;12.240;2023-03-02T10:45:42;18.50;;;12.47;;
12756;SDS011;31601;48.042;12.240;2023-03-02T10:48:11;23.83;;;12.23;;
12756;SDS011;31601;48.042;12.240;2023-03-02T10:50:38;14.40;;;11.23;;
12756;SDS011;31601;48.042;12.240;2023-03-02T10:53:07;38.00;;;16.60;;
12756;SDS011;31601;48.042;12.240;2023-03-02T10:55:43;28.77;;;14.10;;
12756;SDS011;31601;48.042;12.240;2023-03-02T10:58:18;17.00;;;10.83;;
12756;SDS011;31601;48.042;12.240;2023-03-02T11:00:56;19.40;;;12.73;;
12756;SDS011;31601;48.042;12.240;2023-03-02T11:03:25;17.23;;;11.60;;
12756;SDS011;31601;48.042;12.240;2023-03-02T11:05:52;19.47;;;11.83;;
12756;SDS011;31601;48.042;12.240;2023-03-02T11:08:20;18.33;;;11.27;;
12756;SDS011;31601;48.042;12.240;2023-03-02T11:10:52;29.07;;;11.17;;
12756;SDS011;31601;48.042;12.240;2023-03-02T11:13:23;20.30;;;11.30;;
12756;SDS011;31601;48.042;12.240;2023-03-02T11:15:53;24.47;;;11.63;;
12756;SDS011;31601;48.042;12.240;2023-03-02T11:18:24;32.23;;;13.90;;
12756;SDS011;31601;48.042;12.240;2023-03-02T11:20:57;23.87;;;12.70;;
12756;SDS011;31601;48.042;12.240;2023-03-02T11:23:32;17.63;;;11.17;;
12756;SDS011;31601;48.042;12.240;2023-03-02T11:26:04;23.83;;;11.20;;
12756;SDS011;31601;48.042;12.240;2023-03-02T11:28:40;37.77;;;13.47;;
12756;SDS011;31601;48.042;12.240;2023-03-02T11:31:20;16.97;;;10.87;;
12756;SDS011;31601;48.042;12.240;2023-03-02T11:34:01;17.80;;;11.90;;
12756;SDS011;31601;48.042;12.240;2023-03-02T11:36:42;14.10;;;11.03;;
12756;SDS011;31601;48.042;12.240;2023-03-02T11:39:13;16.67;;;11.43;;
12756;SDS011;31601;48.042;12.240;2023-03-02T11:41:44;22.97;;;11.03;;
12756;SDS011;31601;48.042;12.240;2023-03-02T11:44:14;20.37;;;9.87;;
12756;SDS011;31601;48.042;12.240;2023-03-02T11:46:43;28.40;;;12.13;;
12756;SDS011;31601;48.042;12.240;2023-03-02T11:49:14;19.10;;;11.87;;
12756;SDS011;31601;48.042;12.240;2023-03-02T11:51:47;17.47;;;10.83;;
12756;SDS011;31601;48.042;12.240;2023-03-02T11:54:23;20.90;;;11.67;;
12756;SDS011;31601;48.042;12.240;2023-03-02T11:56:57;18.17;;;10.67;;
12756;SDS011;31601;48.042;12.240;2023-03-02T11:59:24;21.33;;;11.70;;
12756;SDS011;31601;48.042;12.240;2023-03-02T12:01:53;16.90;;;11.07;;
12756;SDS011;31601;48.042;12.240;2023-03-02T12:04:26;35.63;;;13.70;;
12756;SDS011;31601;48.042;12.240;2023-03-02T12:06:57;26.50;;;11.63;;
12756;SDS011;31601;48.042;12.240;2023-03-02T12:09:25;24.30;;;11.83;;
12756;SDS011;31601;48.042;12.240;2023-03-02T12:11:56;15.37;;;10.53;;
12756;SDS011;31601;48.042;12.240;2023-03-02T12:14:26;18.03;;;11.13;;
12756;SDS011;31601;48.042;12.240;2023-03-02T12:17:05;20.27;;;11.03;;
12756;SDS011;31601;48.042;12.240;2023-03-02T12:19:44;34.50;;;12.53;;
12756;SDS011;31601;48.042;12.240;2023-03-02T12:22:11;23.37;;;12.00;;
12756;SDS011;31601;48.042;12.240;2023-03-02T12:24:40;26.17;;;13.50;;
12756;SDS011;31601;48.042;12.240;2023-03-02T12:27:21;24.87;;;12.33;;
12756;SDS011;31601;48.042;12.240;2023-03-02T12:29:53;26.80;;;12.00;;
12756;SDS011;31601;48.042;12.240;2023-03-02T12:32:23;15.20;;;11.63;;
12756;SDS011;31601;48.042;12.240;2023-03-02T12:34:53;20.43;;;12.17;;
12756;SDS011;31601;48.042;12.240;2023-03-02T12:37:23;15.17;;;10.83;;
12756;SDS011;31601;48.042;12.240;2023-03-02T12:40:08;21.90;;;13.97;;
12756;SDS011;31601;48.042;12.240;2023-03-02T12:42:51;20.23;;;13.53;;
12756;SDS011;31601;48.042;12.240;2023-03-02T12:45:44;22.33;;;13.70;;
12756;SDS011;31601;48.042;12.240;2023-03-02T12:48:26;19.50;;;12.33;;
12756;SDS011;31601;48.042;12.240;2023-03-02T12:50:58;19.17;;;12.43;;
12756;SDS011;31601;48.042;12.240;2023-03-02T12:53:26;16.23;;;11.70;;
12756;SDS011;31601;48.042;12.240;2023-03-02T12:55:53;17.07;;;10.73;;
12756;SDS011;31601;48.042;12.240;2023-03-02T12:58:20;21.17;;;11.83;;
12756;SDS011;31601;48.042;12.240;2023-03-02T13:00:49;28.87;;;12.23;;
12756;SDS011;31601;48.042;12.240;2023-03-02T13:03:16;14.73;;;11.70;;
12756;SDS011;31601;48.042;12.240;2023-03-02T13:05:43;32.17;;;13.97;;
12756;SDS011;31601;48.042;12.240;2023-03-02T13:08:14;15.90;;;12.00;;
12756;SDS011;31601;48.042;12.240;2023-03-02T13:10:46;16.83;;;12.13;;
12756;SDS011;31601;48.042;12.240;2023-03-02T13:13:15;16.63;;;11.90;;
12756;SDS011;31601;48.042;12.240;2023-03-02T13:15:48;20.83;;;13.03;;
12756;SDS011;31601;48.042;12.240;2023-03-02T13:18:16;16.63;;;12.40;;
12756;SDS011;31601;48.042;12.240;2023-03-02T13:20:45;18.60;;;12.07;;
12756;SDS011;31601;48.042;12.240;2023-03-02T13:23:14;46.73;;;17.30;;
12756;SDS011;31601;48.042;12.240;2023-03-02T13:25:48;25.93;;;14.77;;
12756;SDS011;31601;48.042;12.240;2023-03-02T13:28:26;26.47;;;14.37;;
12756;SDS011;31601;48.042;12.240;2023-03-02T13:30:58;19.53;;;13.73;;
12756;SDS011;31601;48.042;12.240;2023-03-02T13:33:25;34.90;;;15.80;;
12756;SDS011;31601;48.042;12.240;2023-03-02T13:35:54;27.13;;;14.60;;
12756;SDS011;31601;48.042;12.240;2023-03-02T13:38:23;39.00;;;16.93;;
12756;SDS011;31601;48.042;12.240;2023-03-02T13:40:51;29.10;;;15.83;;
12756;SDS011;31601;48.042;12.240;2023-03-02T13:43:20;22.87;;;13.90;;
12756;SDS011;31601;48.042;12.240;2023-03-02T13:45:56;22.43;;;14.60;;
12756;SDS011;31601;48.042;12.240;2023-03-02T13:48:24;25.50;;;14.90;;
12756;SDS011;31601;48.042;12.240;2023-03-02T13:50:52;28.37;;;15.43;;
12756;SDS011;31601;48.042;12.240;2023-03-02T13:53:22;79.20;;;19.87;;
12756;SDS011;31601;48.042;12.240;2023-03-02T13:55:50;20.80;;;14.23;;
12756;SDS011;31601;48.042;12.240;2023-03-02T13:58:18;20.90;;;14.23;;
12756;SDS011;31601;48.042;12.240;2023-03-02T14:00:46;20.50;;;15.20;;
12756;SDS011;31601;48.042;12.240;2023-03-02T14:03:20;22.23;;;15.57;;
12756;SDS011;31601;48.042;12.240;2023-03-02T14:05:49;23.33;;;15.20;;
12756;SDS011;31601;48.042;12.240;2023-03-02T14:08:16;19.50;;;14.00;;
12756;SDS011;31601;48.042;12.240;2023-03-02T14:10:44;29.63;;;14.40;;
12756;SDS011;31601;48.042;12.240;2023-03-02T14:13:12;19.13;;;13.33;;
12756;SDS011;31601;48.042;12.240;2023-03-02T14:15:45;22.50;;;14.43;;
12756;SDS011;31601;48.042;12.240;2023-03-02T14:18:28;30.43;;;15.17;;
12756;SDS011;31601;48.042;12.240;2023-03-02T14:20:57;49.20;;;16.23;;